Time;durP1;ratioP1;P1;durP2;ratioP2;P2;SDS_P1;SDS_P2;PMS_P1;PMS_P2;Temp;Humidity;BMP_temperature;BMP_pressure;BME280_temperature;BME280_humidity;BME280_pressure;Samples;Min_cycle;Max_cycle;Signal;HPM_P1;HPM_P2
2021/10/02 00:31:53;;;;;;;24.83;19.85;;;13.20;99.90;;;;;;5064821;28;20495;-74
2021/10/02 00:44:44;;;;;;;27.52;20.60;;;13.10;99.90;;;;;;5065743;28;20055;-74
2021/10/02 00:47:17;;;;;;;23.73;19.80;;;13.10;99.90;;;;;;5048708;28;20047;-74
2021/10/02 00:49:43;;;;;;;27.23;21.40;;;13.20;99.90;;;;;;5049234;28;20083;-74
2021/10/02 00:52:15;;;;;;;27.00;20.55;;;13.20;99.90;;;;;;5048398;28;20078;-75
2021/10/02 00:54:41;;;;;;;25.20;22.50;;;13.20;99.90;;;;;;5046612;28;20053;-75
2021/10/02 00:57:08;;;;;;;28.05;21.70;;;13.20;99.90;;;;;;5030856;28;20056;-75
2021/10/02 00:59:34;;;;;;;28.92;21.40;;;13.20;99.90;;;;;;5048076;28;20165;-73
2021/10/02 01:02:32;;;;;;;28.92;22.85;;;13.20;99.90;;;;;;5047012;28;20080;-73
2021/10/02 01:04:57;;;;;;;28.52;23.30;;;13.20;99.90;;;;;;5032290;28;20131;-73
2021/10/02 01:07:32;;;;;;;28.58;23.05;;;13.20;99.90;;;;;;5031139;28;20108;-73
2021/10/02 01:10:17;;;;;;;30.02;21.40;;;13.20;99.90;;;;;;5065672;28;20048;-74
2021/10/02 01:13:11;;;;;;;29.92;22.40;;;13.20;99.90;;;;;;5048100;28;20044;-73
2021/10/02 01:15:56;;;;;;;27.15;21.85;;;13.20;99.90;;;;;;5065648;28;20040;-73
2021/10/02 01:18:34;;;;;;;31.35;25.00;;;13.10;99.90;;;;;;5048285;28;20048;-73
2021/10/02 01:21:19;;;;;;;27.27;21.65;;;13.10;99.90;;;;;;5048532;28;20048;-72
2021/10/02 01:23:50;;;;;;;32.55;26.55;;;13.20;99.90;;;;;;5066023;28;20123;-73
2021/10/02 01:26:19;;;;;;;30.33;24.55;;;13.20;99.90;;;;;;5047875;28;20474;-73
2021/10/02 01:28:53;;;;;;;33.13;25.58;;;13.10;99.90;;;;;;5030110;28;20048;-74
2021/10/02 01:31:28;;;;;;;30.38;24.75;;;13.10;99.90;;;;;;5048050;28;20046;-73
2021/10/02 01:47:41;;;;;;;26.45;22.80;;;13.10;99.90;;;;;;5047414;28;20124;-73
2021/10/02 01:50:08;;;;;;;35.75;27.48;;;13.10;99.90;;;;;;5046459;28;20049;-73
2021/10/02 01:52:39;;;;;;;30.92;24.27;;;13.00;99.90;;;;;;5027701;28;20037;-73
2021/10/02 01:55:08;;;;;;;28.58;22.77;;;13.00;99.90;;;;;;5048279;28;20144;-73
2021/10/02 01:57:39;;;;;;;30.13;23.77;;;13.00;99.90;;;;;;5047376;28;20174;-73
2021/10/02 02:00:14;;;;;;;25.63;20.75;;;13.00;99.90;;;;;;5029801;28;20087;-74
2021/10/02 02:02:46;;;;;;;33.45;25.15;;;13.00;99.90;;;;;;5048017;28;20128;-73
2021/10/02 02:05:15;;;;;;;30.92;25.05;;;13.00;99.90;;;;;;5048930;28;20140;-73
2021/10/02 02:07:46;;;;;;;27.75;22.77;;;13.00;99.90;;;;;;5032258;28;20040;-73
2021/10/02 02:10:13;;;;;;;34.03;26.65;;;13.00;99.90;;;;;;5036746;28;20067;-73
2021/10/02 02:12:40;;;;;;;28.48;23.33;;;12.90;99.90;;;;;;4980751;28;20053;-73
2021/10/02 02:15:09;;;;;;;31.63;25.15;;;13.00;99.90;;;;;;5029928;28;20759;-73
2021/10/02 02:17:38;;;;;;;39.50;26.55;;;13.00;99.90;;;;;;5039557;28;20071;-73
2021/10/02 02:20:06;;;;;;;33.63;24.38;;;13.00;99.90;;;;;;5049526;28;20095;-74
2021/10/02 02:22:32;;;;;;;38.47;26.17;;;13.00;99.90;;;;;;5032346;28;20041;-74
2021/10/02 02:24:58;;;;;;;35.08;26.45;;;13.00;99.90;;;;;;5032838;28;20543;-73
2021/10/02 02:27:28;;;;;;;35.65;25.58;;;12.90;99.90;;;;;;5032205;28;20055;-73
2021/10/02 02:29:54;;;;;;;37.47;26.77;;;12.90;99.90;;;;;;5048393;28;20041;-73
2021/10/02 02:32:20;;;;;;;33.78;24.02;;;12.90;99.90;;;;;;5032375;28;20075;-73
2021/10/02 02:34:47;;;;;;;27.75;23.65;;;12.90;99.90;;;;;;5048907;28;20048;-73
2021/10/02 02:37:13;;;;;;;38.60;28.02;;;12.90;99.90;;;;;;5000060;28;20048;-73
2021/10/02 02:39:38;;;;;;;36.22;27.10;;;12.90;99.90;;;;;;5048893;28;20503;-73
2021/10/02 02:42:05;;;;;;;33.70;26.30;;;12.90;99.90;;;;;;5045180;28;20057;-74
2021/10/02 02:44:31;;;;;;;30.30;22.42;;;12.90;99.90;;;;;;5030064;28;20068;-73
2021/10/02 02:47:04;;;;;;;41.15;28.27;;;12.90;99.90;;;;;;5015962;28;20048;-73
2021/10/02 02:50:15;;;;;;;34.55;26.70;;;12.80;99.90;;;;;;5048611;28;20083;-74
2021/10/02 02:52:51;;;;;;;27.20;22.42;;;12.80;99.90;;;;;;5024039;28;20077;-73
2021/10/02 02:55:21;;;;;;;33.20;24.60;;;12.80;99.90;;;;;;5045201;28;20451;-73
2021/10/02 02:57:55;;;;;;;31.33;25.23;;;12.80;99.90;;;;;;5012028;28;20128;-73
2021/10/02 03:00:23;;;;;;;41.15;28.38;;;12.80;99.90;;;;;;5041827;28;20106;-74
2021/10/02 03:02:56;;;;;;;34.50;26.27;;;12.80;99.90;;;;;;5048076;28;20136;-74
2021/10/02 03:05:26;;;;;;;33.53;25.20;;;12.80;99.90;;;;;;5048500;28;20079;-73
2021/10/02 03:08:05;;;;;;;35.00;24.38;;;12.80;99.90;;;;;;5016248;28;20115;-74
2021/10/02 03:10:35;;;;;;;35.28;26.80;;;12.80;99.90;;;;;;5047250;28;20048;-74
2021/10/02 03:13:07;;;;;;;30.45;25.17;;;12.80;99.90;;;;;;5048694;28;20093;-73
2021/10/02 03:15:35;;;;;;;40.97;28.10;;;12.70;99.90;;;;;;5064696;28;20499;-73
2021/10/02 03:18:02;;;;;;;36.58;27.48;;;12.80;99.90;;;;;;5065270;28;20083;-73
2021/10/02 03:20:29;;;;;;;35.20;26.90;;;12.80;99.90;;;;;;5048805;28;20175;-73
2021/10/02 03:22:56;;;;;;;42.92;28.52;;;12.70;99.90;;;;;;5043766;28;20045;-73
2021/10/02 03:25:42;;;;;;;39.20;27.83;;;12.70;99.90;;;;;;5030132;28;20232;-73
2021/10/02 03:28:08;;;;;;;33.72;26.23;;;12.70;99.90;;;;;;5031327;28;20056;-73
2021/10/02 03:30:34;;;;;;;34.47;26.55;;;12.70;99.90;;;;;;5015437;28;20091;-74
2021/10/02 03:33:00;;;;;;;37.40;27.77;;;12.70;99.90;;;;;;5012103;28;20048;-74
2021/10/02 03:35:26;;;;;;;33.78;27.67;;;12.70;99.90;;;;;;5011744;28;20060;-74
2021/10/02 03:37:52;;;;;;;38.72;29.25;;;12.70;99.90;;;;;;5011503;28;20526;-74
2021/10/02 03:40:19;;;;;;;34.38;27.20;;;12.70;99.90;;;;;;5044657;28;20088;-74
2021/10/02 03:42:48;;;;;;;34.83;27.90;;;12.70;99.90;;;;;;5025544;28;20057;-73
2021/10/02 03:45:18;;;;;;;43.97;31.40;;;12.70;99.90;;;;;;5052309;28;20056;-73
2021/10/02 03:47:46;;;;;;;32.53;26.63;;;12.70;99.90;;;;;;5030637;28;20117;-74
2021/10/02 03:50:13;;;;;;;30.45;24.85;;;12.70;99.90;;;;;;5031036;28;20040;-74
2021/10/02 03:52:39;;;;;;;49.88;30.15;;;12.70;99.90;;;;;;5035545;28;20063;-74
2021/10/02 03:55:08;;;;;;;37.95;27.23;;;12.70;99.90;;;;;;5027797;28;20407;-73
2021/10/02 03:57:34;;;;;;;40.47;28.52;;;12.70;99.90;;;;;;5043778;28;20051;-74
2021/10/02 04:00:00;;;;;;;35.55;26.85;;;12.70;99.90;;;;;;5034767;28;20094;-74
2021/10/02 04:02:26;;;;;;;45.38;29.40;;;12.70;99.90;;;;;;5061391;28;20045;-73
2021/10/02 04:04:52;;;;;;;38.03;29.40;;;12.60;99.90;;;;;;5046711;28;20076;-73
2021/10/02 04:07:18;;;;;;;30.27;24.20;;;12.60;99.90;;;;;;5029855;28;20045;-74
2021/10/02 04:09:44;;;;;;;38.67;27.88;;;12.50;99.90;;;;;;5013214;28;20047;-74
2021/10/02 04:12:09;;;;;;;46.88;31.10;;;12.60;99.90;;;;;;5047377;28;20056;-73
2021/10/02 04:14:35;;;;;;;32.63;25.30;;;12.60;99.90;;;;;;5047400;28;20477;-74
2021/10/02 04:17:04;;;;;;;36.92;27.95;;;12.50;99.90;;;;;;5047233;28;20045;-74
2021/10/02 04:19:30;;;;;;;54.53;31.35;;;12.60;99.90;;;;;;5031016;28;20045;-73
2021/10/02 04:21:56;;;;;;;36.15;27.88;;;12.50;99.90;;;;;;5064036;28;20128;-74
2021/10/02 04:24:25;;;;;;;33.47;25.02;;;12.50;99.90;;;;;;5047716;28;20079;-74
2021/10/02 04:26:52;;;;;;;40.90;27.92;;;12.50;99.90;;;;;;5047596;28;20048;-73
2021/10/02 04:29:18;;;;;;;43.80;30.05;;;12.50;99.90;;;;;;5030224;28;20079;-73
2021/10/02 04:31:43;;;;;;;43.70;30.48;;;12.50;99.90;;;;;;5047510;28;20037;-74
2021/10/02 04:34:09;;;;;;;37.00;27.50;;;12.50;99.90;;;;;;5047774;28;20527;-74
2021/10/02 04:36:35;;;;;;;35.17;26.10;;;12.50;99.90;;;;;;5047208;28;20047;-74
2021/10/02 04:39:02;;;;;;;43.45;30.52;;;12.50;99.90;;;;;;5030265;28;20099;-73
2021/10/02 04:41:28;;;;;;;45.85;31.75;;;12.60;99.90;;;;;;5063499;28;20311;-74
2021/10/02 04:43:54;;;;;;;52.47;32.88;;;12.60;99.90;;;;;;5026910;28;20056;-73
2021/10/02 04:46:20;;;;;;;43.75;31.90;;;12.60;99.90;;;;;;5043919;28;20049;-74
2021/10/02 04:48:47;;;;;;;44.22;30.85;;;12.60;99.90;;;;;;5045793;28;20146;-74
2021/10/02 04:51:13;;;;;;;43.95;31.05;;;12.60;99.90;;;;;;5009923;28;20179;-74
2021/10/02 04:53:40;;;;;;;40.60;30.10;;;12.60;99.90;;;;;;5046840;28;20041;-74
2021/10/02 04:56:09;;;;;;;42.25;30.60;;;12.60;99.90;;;;;;5063420;28;20055;-74
2021/10/02 04:58:36;;;;;;;43.00;29.17;;;12.60;99.90;;;;;;5013666;28;20102;-74
2021/10/02 05:01:08;;;;;;;45.13;31.55;;;12.60;99.90;;;;;;5062141;28;20561;-74
2021/10/02 05:03:37;;;;;;;45.83;32.08;;;12.60;99.90;;;;;;5063143;28;20121;-74
2021/10/02 05:06:04;;;;;;;44.63;31.30;;;12.60;99.90;;;;;;5062905;28;20068;-74
2021/10/02 05:08:31;;;;;;;57.55;33.50;;;12.60;99.90;;;;;;5046630;28;20049;-73
2021/10/02 05:10:58;;;;;;;59.03;35.95;;;12.60;99.90;;;;;;5045473;28;20546;-73
2021/10/02 05:13:23;;;;;;;51.08;32.60;;;12.60;99.90;;;;;;5063518;28;20554;-73
2021/10/02 05:15:53;;;;;;;39.50;28.35;;;12.60;99.90;;;;;;5031585;28;20036;-73
2021/10/02 05:18:19;;;;;;;48.25;33.05;;;12.60;99.90;;;;;;5050340;28;20114;-73
2021/10/02 05:20:48;;;;;;;69.18;37.75;;;12.70;99.90;;;;;;5033717;28;20140;-73
2021/10/02 05:23:13;;;;;;;68.03;36.00;;;12.70;99.90;;;;;;5050671;28;20037;-73
2021/10/02 05:25:39;;;;;;;45.05;34.20;;;12.60;99.90;;;;;;5050294;28;20518;-73
2021/10/02 05:28:05;;;;;;;47.42;32.42;;;12.70;99.90;;;;;;5050453;28;20056;-72
2021/10/02 05:30:34;;;;;;;50.92;31.48;;;12.70;99.90;;;;;;5049227;28;20551;-73
2021/10/02 05:33:03;;;;;;;59.78;35.47;;;12.70;99.90;;;;;;5050344;28;20045;-73
2021/10/02 05:35:29;;;;;;;50.47;33.17;;;12.70;99.90;;;;;;5033839;28;20499;-73
2021/10/02 05:37:55;;;;;;;54.08;34.53;;;12.70;99.90;;;;;;5050217;28;20041;-73
2021/10/02 05:40:21;;;;;;;56.40;34.80;;;12.70;99.90;;;;;;5049951;28;20705;-73
2021/10/02 05:42:47;;;;;;;58.38;35.40;;;12.70;99.90;;;;;;5049265;28;20056;-74
2021/10/02 05:45:13;;;;;;;55.33;35.25;;;12.80;99.90;;;;;;5032713;28;20068;-73
2021/10/02 05:47:39;;;;;;;59.97;37.78;;;12.80;99.90;;;;;;5032993;28;20049;-73
2021/10/02 05:50:06;;;;;;;46.22;33.33;;;12.80;99.90;;;;;;5033165;28;20147;-73
2021/10/02 05:52:34;;;;;;;55.83;37.15;;;12.80;99.90;;;;;;5048867;28;20053;-73
2021/10/02 05:55:00;;;;;;;56.80;37.40;;;12.80;99.90;;;;;;5033136;28;20131;-73
2021/10/02 05:57:27;;;;;;;56.20;37.30;;;12.90;99.90;;;;;;5066968;28;20164;-73
2021/10/02 05:59:52;;;;;;;57.08;36.90;;;12.90;99.90;;;;;;5048652;28;20045;-73
2021/10/02 06:02:18;;;;;;;48.92;34.35;;;12.90;99.90;;;;;;5016794;28;20051;-73
2021/10/02 06:04:44;;;;;;;53.65;36.47;;;12.90;99.90;;;;;;5066716;28;20041;-73
2021/10/02 06:07:10;;;;;;;56.00;37.78;;;13.00;99.90;;;;;;5033661;28;20487;-73
2021/10/02 06:09:36;;;;;;;64.28;38.95;;;13.00;99.90;;;;;;5026013;28;20060;-73
2021/10/02 06:12:02;;;;;;;58.10;38.53;;;13.00;99.90;;;;;;5046208;28;20041;-73
2021/10/02 06:14:28;;;;;;;58.40;38.85;;;13.00;99.90;;;;;;5046689;28;20083;-73
2021/10/02 06:16:54;;;;;;;54.85;36.80;;;13.00;99.90;;;;;;5030121;28;20516;-74
2021/10/02 06:19:20;;;;;;;57.97;37.83;;;13.00;99.90;;;;;;5013553;28;20123;-73
2021/10/02 06:21:47;;;;;;;59.83;38.97;;;13.00;99.90;;;;;;5012966;28;20745;-72
2021/10/02 06:24:14;;;;;;;58.25;37.72;;;13.00;99.90;;;;;;5028689;28;20046;-73
2021/10/02 06:26:39;;;;;;;48.97;35.85;;;13.10;99.90;;;;;;5058600;28;20081;-73
2021/10/02 06:29:06;;;;;;;53.80;37.28;;;13.00;99.90;;;;;;5048078;28;20076;-73
2021/10/02 06:31:32;;;;;;;72.82;39.67;;;13.00;99.90;;;;;;5048526;28;20088;-73
2021/10/02 06:33:58;;;;;;;50.08;34.63;;;13.00;99.90;;;;;;5065019;28;20106;-73
2021/10/02 06:36:27;;;;;;;64.63;39.30;;;13.10;99.90;;;;;;5032564;28;20408;-74
2021/10/02 06:38:53;;;;;;;56.10;36.20;;;13.10;99.90;;;;;;5031487;28;20044;-73
2021/10/02 06:41:23;;;;;;;46.22;34.65;;;13.10;99.90;;;;;;5012052;28;20123;-74
2021/10/02 06:43:50;;;;;;;58.05;36.95;;;13.10;99.90;;;;;;5026136;28;20080;-74
2021/10/02 06:46:15;;;;;;;49.97;36.53;;;13.10;99.90;;;;;;5043656;28;20053;-73
2021/10/02 06:48:41;;;;;;;56.88;37.92;;;13.10;99.90;;;;;;5030720;28;20059;-74
2021/10/02 06:51:08;;;;;;;46.00;33.40;;;13.10;99.90;;;;;;5047980;28;20049;-74
2021/10/02 06:53:34;;;;;;;62.60;38.17;;;13.10;99.90;;;;;;4998951;28;20048;-74
2021/10/02 06:56:00;;;;;;;44.63;32.28;;;13.10;99.90;;;;;;5048613;28;20127;-74
2021/10/02 06:58:26;;;;;;;49.95;32.95;;;13.10;99.90;;;;;;5014799;28;20131;-74
2021/10/02 07:00:51;;;;;;;55.67;36.75;;;13.10;99.90;;;;;;5045904;28;20055;-75
2021/10/02 07:03:17;;;;;;;49.22;34.33;;;13.10;99.90;;;;;;5048669;28;20487;-75
2021/10/02 07:05:43;;;;;;;56.30;37.58;;;13.10;99.90;;;;;;5048031;28;20044;-75
2021/10/02 07:08:09;;;;;;;53.92;36.97;;;13.20;99.90;;;;;;5048149;28;20095;-75
2021/10/02 07:10:35;;;;;;;47.97;34.72;;;13.20;99.90;;;;;;5031410;28;20051;-75
2021/10/02 07:13:02;;;;;;;47.10;33.80;;;13.20;99.90;;;;;;5031881;28;20084;-74
2021/10/02 07:15:28;;;;;;;49.65;36.45;;;13.20;99.90;;;;;;5048456;28;20605;-74
2021/10/02 07:17:54;;;;;;;50.15;35.47;;;13.20;99.90;;;;;;5048163;28;20056;-74
2021/10/02 07:20:23;;;;;;;47.95;34.22;;;13.20;99.90;;;;;;4998596;28;20103;-74
2021/10/02 07:22:48;;;;;;;53.72;34.55;;;13.20;99.90;;;;;;5039870;28;20048;-74
2021/10/02 07:25:15;;;;;;;57.22;36.83;;;13.20;99.90;;;;;;5047741;28;20053;-74
2021/10/02 07:27:42;;;;;;;50.10;36.88;;;13.30;99.90;;;;;;5048011;28;20041;-73
2021/10/02 07:30:09;;;;;;;43.22;33.72;;;13.20;99.90;;;;;;5047143;28;20042;-73
2021/10/02 07:32:35;;;;;;;49.40;35.38;;;13.20;99.90;;;;;;5026318;28;20041;-73
2021/10/02 07:35:05;;;;;;;47.35;34.60;;;13.20;99.90;;;;;;5011684;28;20059;-74
2021/10/02 07:37:35;;;;;;;42.22;32.00;;;13.20;99.90;;;;;;5011386;28;20046;-73
2021/10/02 07:40:03;;;;;;;46.63;33.23;;;13.20;99.90;;;;;;5011703;28;20041;-73
2021/10/02 07:42:31;;;;;;;51.97;34.50;;;13.20;99.90;;;;;;5043650;28;20296;-72
2021/10/02 07:45:08;;;;;;;45.78;33.72;;;13.30;99.90;;;;;;5012514;28;20041;-74
2021/10/02 07:47:39;;;;;;;48.88;31.92;;;13.30;99.90;;;;;;5031170;28;20146;-71
2021/10/02 07:50:08;;;;;;;47.63;34.35;;;13.30;99.90;;;;;;5047939;28;20522;-73
2021/10/02 07:52:35;;;;;;;43.35;30.77;;;13.30;99.90;;;;;;5047509;28;20053;-74
2021/10/02 07:55:07;;;;;;;46.50;32.55;;;13.30;99.90;;;;;;5010903;28;20127;-73
2021/10/02 07:57:33;;;;;;;47.42;34.40;;;13.30;99.90;;;;;;5044623;28;20045;-73
2021/10/02 07:59:59;;;;;;;41.85;32.47;;;13.40;99.90;;;;;;5030652;28;20049;-74
2021/10/02 08:02:26;;;;;;;42.67;31.85;;;13.40;99.90;;;;;;5045306;28;20072;-73
2021/10/02 08:04:53;;;;;;;37.47;30.27;;;13.50;99.90;;;;;;5063228;28;20518;-73
2021/10/02 08:07:20;;;;;;;37.85;30.58;;;13.60;99.90;;;;;;5030892;28;20146;-73
2021/10/02 08:09:45;;;;;;;38.55;30.42;;;13.70;99.90;;;;;;5046549;28;20059;-73
2021/10/02 08:12:12;;;;;;;36.92;30.20;;;13.80;99.90;;;;;;5045190;28;20399;-73
2021/10/02 08:14:38;;;;;;;38.47;29.15;;;13.80;99.90;;;;;;5033968;28;20048;-74
2021/10/02 08:17:09;;;;;;;35.63;28.63;;;13.90;99.90;;;;;;5042280;28;20124;-74
2021/10/02 08:19:36;;;;;;;37.80;28.42;;;13.90;99.90;;;;;;5041626;28;20094;-73
2021/10/02 08:22:04;;;;;;;35.60;27.27;;;13.90;99.90;;;;;;5027680;28;20052;-73
2021/10/02 08:24:31;;;;;;;35.35;25.23;;;13.90;99.90;;;;;;5045069;28;20037;-73
2021/10/02 08:26:57;;;;;;;31.02;25.52;;;13.90;99.90;;;;;;5012561;28;20044;-73
2021/10/02 08:29:23;;;;;;;34.90;25.10;;;13.90;99.90;;;;;;5043140;28;20127;-73
2021/10/02 08:31:49;;;;;;;30.35;25.65;;;13.90;99.90;;;;;;5022958;28;20119;-74
2021/10/02 08:34:15;;;;;;;28.48;24.85;;;13.90;99.90;;;;;;5042356;28;20052;-73
2021/10/02 08:36:41;;;;;;;32.13;24.63;;;13.90;99.90;;;;;;5022686;28;20061;-73
2021/10/02 08:39:06;;;;;;;32.97;25.63;;;14.00;99.90;;;;;;5025568;28;20045;-73
2021/10/02 08:41:34;;;;;;;31.30;25.20;;;14.00;99.90;;;;;;5044084;28;20064;-73
2021/10/02 08:44:02;;;;;;;31.00;24.42;;;14.00;99.90;;;;;;5022989;28;20368;-74
2021/10/02 08:46:34;;;;;;;31.38;25.08;;;14.00;99.90;;;;;;5058773;28;20041;-74
2021/10/02 08:49:12;;;;;;;30.05;25.00;;;14.10;99.90;;;;;;5032705;28;20486;-73
2021/10/02 08:51:41;;;;;;;28.52;24.23;;;14.30;99.90;;;;;;5020955;28;20050;-74
2021/10/02 08:54:08;;;;;;;28.40;24.83;;;14.50;99.90;;;;;;5023170;28;20174;-73
2021/10/02 08:56:37;;;;;;;29.65;24.30;;;14.70;99.90;;;;;;5024836;28;20115;-74
2021/10/02 08:59:03;;;;;;;28.95;23.75;;;14.80;99.90;;;;;;5052594;28;20403;-73
2021/10/02 09:01:29;;;;;;;26.05;21.45;;;14.90;99.90;;;;;;5020508;28;20072;-73
2021/10/02 09:03:55;;;;;;;27.35;22.27;;;15.00;99.90;;;;;;5025767;28;20461;-74
2021/10/02 09:06:21;;;;;;;29.73;23.67;;;14.90;99.90;;;;;;5017682;28;20084;-73
2021/10/02 09:08:47;;;;;;;28.90;22.15;;;15.00;99.90;;;;;;5037542;28;20705;-72
2021/10/02 09:11:13;;;;;;;27.63;22.05;;;15.00;99.90;;;;;;5038406;28;20572;-73
2021/10/02 09:13:39;;;;;;;24.73;20.90;;;15.00;99.90;;;;;;5027354;28;20131;-73
2021/10/02 09:16:05;;;;;;;27.67;22.98;;;15.00;99.90;;;;;;5054172;28;20124;-73
2021/10/02 09:18:31;;;;;;;28.70;22.05;;;15.00;99.90;;;;;;5056849;28;20091;-73
2021/10/02 09:21:04;;;;;;;26.55;21.67;;;15.00;99.90;;;;;;5045953;28;20048;-73
2021/10/02 09:23:34;;;;;;;31.02;22.38;;;15.00;99.90;;;;;;5053856;28;20043;-73
2021/10/02 09:26:02;;;;;;;26.33;20.88;;;14.90;99.90;;;;;;5001949;28;20072;-73
2021/10/02 09:28:38;;;;;;;25.83;21.65;;;14.90;99.90;;;;;;5027210;28;20503;-73
2021/10/02 09:31:05;;;;;;;25.67;21.08;;;14.70;99.90;;;;;;5046489;28;20055;-73
2021/10/02 09:33:34;;;;;;;28.45;21.25;;;14.70;99.90;;;;;;5051383;28;20406;-73
2021/10/02 09:36:00;;;;;;;31.25;21.15;;;14.60;99.90;;;;;;5052976;28;20040;-74
2021/10/02 09:38:27;;;;;;;26.63;21.13;;;14.60;99.90;;;;;;5048849;28;20568;-73
2021/10/02 09:40:54;;;;;;;26.48;21.58;;;14.50;99.90;;;;;;5048546;28;20045;-73
2021/10/02 09:43:21;;;;;;;29.33;21.15;;;14.50;99.90;;;;;;5048793;28;20067;-73
2021/10/02 09:45:48;;;;;;;25.77;21.02;;;14.50;99.90;;;;;;5045695;28;20044;-74
2021/10/02 09:48:17;;;;;;;30.25;20.92;;;14.50;99.90;;;;;;5049074;28;20048;-74
2021/10/02 09:50:45;;;;;;;26.75;19.80;;;14.50;99.90;;;;;;5047238;28;20037;-74
2021/10/02 09:53:14;;;;;;;25.40;19.83;;;14.50;99.90;;;;;;5051414;28;20074;-73
2021/10/02 09:55:48;;;;;;;31.17;21.52;;;14.50;99.90;;;;;;5047292;28;20048;-73
2021/10/02 09:58:35;;;;;;;26.63;20.05;;;14.60;99.90;;;;;;5050035;28;20542;-73
2021/10/02 10:01:08;;;;;;;30.40;21.67;;;14.80;99.90;;;;;;5044461;28;20052;-73
2021/10/02 10:03:39;;;;;;;29.77;20.90;;;15.00;99.90;;;;;;5031733;28;20098;-73
2021/10/02 10:06:25;;;;;;;27.38;19.95;;;15.00;99.90;;;;;;5032157;28;20358;-73
2021/10/02 10:09:12;;;;;;;23.92;18.35;;;15.20;99.90;;;;;;5048139;28;20387;-74
2021/10/02 10:11:42;;;;;;;26.70;19.23;;;15.30;99.90;;;;;;5028892;28;20518;-73
2021/10/02 10:14:08;;;;;;;26.98;18.83;;;15.30;99.90;;;;;;5069384;28;20044;-74
2021/10/02 10:16:38;;;;;;;21.98;16.42;;;15.30;99.90;;;;;;5046278;28;20058;-74
2021/10/02 10:19:28;;;;;;;17.60;12.80;;;15.40;99.90;;;;;;5042277;28;20032;-73
2021/10/02 10:22:10;;;;;;;16.92;12.40;;;15.60;99.90;;;;;;5049663;28;20056;-73
2021/10/02 10:24:39;;;;;;;17.98;12.57;;;15.80;99.90;;;;;;5050395;28;20037;-74
2021/10/02 10:27:06;;;;;;;18.25;11.93;;;15.90;99.90;;;;;;5038924;28;20055;-74
2021/10/02 10:29:41;;;;;;;13.73;10.43;;;16.10;99.90;;;;;;5046733;28;20049;-73
2021/10/02 10:32:09;;;;;;;15.05;9.65;;;16.20;99.90;;;;;;5050757;28;20140;-74
2021/10/02 10:34:38;;;;;;;15.43;10.90;;;16.20;99.90;;;;;;5031598;28;20041;-73
2021/10/02 10:37:06;;;;;;;13.73;10.40;;;16.30;99.90;;;;;;5052554;28;20060;-72
2021/10/02 10:39:35;;;;;;;13.85;10.00;;;16.30;99.90;;;;;;5030178;28;20051;-73
2021/10/02 10:42:03;;;;;;;11.68;8.90;;;16.20;99.90;;;;;;5031788;28;20056;-73
2021/10/02 10:44:30;;;;;;;13.27;8.32;;;16.20;99.90;;;;;;5045450;28;20559;-74
2021/10/02 10:46:56;;;;;;;11.00;7.57;;;16.20;99.90;;;;;;5046969;28;20048;-73
2021/10/02 10:49:27;;;;;;;11.73;8.20;;;16.20;99.90;;;;;;5037508;28;20107;-73
2021/10/02 10:51:58;;;;;;;12.70;7.75;;;16.10;99.90;;;;;;5050540;28;20056;-73
2021/10/02 10:54:24;;;;;;;10.52;6.90;;;16.00;99.90;;;;;;5027183;28;20048;-74
2021/10/02 10:56:50;;;;;;;10.60;6.95;;;16.00;99.90;;;;;;5053853;28;20048;-73
2021/10/02 10:59:19;;;;;;;7.15;6.00;;;16.00;99.90;;;;;;5037497;28;20044;-73
2021/10/02 11:01:48;;;;;;;10.30;6.13;;;16.10;99.90;;;;;;5029147;28;20471;-73
2021/10/02 11:04:37;;;;;;;11.38;6.45;;;16.30;99.90;;;;;;5036434;28;20048;-73
2021/10/02 11:07:05;;;;;;;13.57;6.60;;;16.30;99.90;;;;;;5031182;28;20053;-72
2021/10/02 11:09:35;;;;;;;11.85;5.55;;;16.30;99.90;;;;;;5050474;28;20114;-73
2021/10/02 11:12:03;;;;;;;10.43;4.78;;;16.30;99.90;;;;;;5066093;28;20136;-72
2021/10/02 11:14:46;;;;;;;6.13;3.97;;;16.30;99.90;;;;;;5002321;28;20076;-74
2021/10/02 11:17:14;;;;;;;7.50;3.90;;;16.20;99.00;;;;;;5051598;28;20051;-74
2021/10/02 11:19:43;;;;;;;10.35;4.90;;;16.10;99.70;;;;;;5044799;28;20044;-73
2021/10/02 11:23:00;;;;;;;8.70;4.95;;;16.00;99.90;;;;;;5048519;28;20044;-73
2021/10/02 11:25:26;;;;;;;8.82;4.10;;;16.00;99.90;;;;;;5051270;28;20079;-74
2021/10/02 11:27:53;;;;;;;11.02;3.92;;;16.10;99.90;;;;;;5024051;28;20499;-74
2021/10/02 11:30:21;;;;;;;10.68;4.22;;;16.10;99.90;;;;;;5049354;28;20531;-74
2021/10/02 11:32:47;;;;;;;7.03;3.58;;;16.20;99.90;;;;;;5044591;28;20048;-74
2021/10/02 11:35:13;;;;;;;6.85;3.38;;;16.20;99.80;;;;;;5049305;28;20044;-73
2021/10/02 11:38:07;;;;;;;7.93;3.47;;;16.20;99.80;;;;;;5049939;28;20051;-74
2021/10/02 11:40:36;;;;;;;10.90;4.88;;;16.10;98.50;;;;;;5049123;28;20036;-73
2021/10/02 11:43:18;;;;;;;10.10;4.07;;;16.10;98.40;;;;;;5049939;28;20056;-74
2021/10/02 11:45:43;;;;;;;9.68;4.60;;;16.00;99.60;;;;;;5050312;28;20060;-74
2021/10/02 11:48:16;;;;;;;10.75;4.45;;;16.00;99.90;;;;;;5033479;28;20036;-74
2021/10/02 11:50:44;;;;;;;7.57;4.13;;;15.90;99.90;;;;;;5029084;28;20048;-74
2021/10/02 11:53:13;;;;;;;9.32;4.00;;;15.90;99.90;;;;;;5048187;28;20120;-74
2021/10/02 11:55:42;;;;;;;5.95;3.50;;;15.90;99.90;;;;;;5030429;28;20044;-74
2021/10/02 11:58:10;;;;;;;7.10;3.63;;;15.90;99.90;;;;;;5033788;28;20052;-73
2021/10/02 12:00:38;;;;;;;8.55;3.55;;;15.80;99.90;;;;;;5053747;28;20079;-73
2021/10/02 12:03:05;;;;;;;9.57;3.80;;;15.80;99.90;;;;;;5033792;28;20041;-74
2021/10/02 12:05:32;;;;;;;8.27;3.47;;;15.80;99.90;;;;;;5050597;28;20044;-74
2021/10/02 12:07:59;;;;;;;10.15;4.25;;;15.80;99.90;;;;;;5049238;28;20060;-73
2021/10/02 12:10:26;;;;;;;9.38;3.95;;;15.80;99.90;;;;;;5050820;28;20170;-74
2021/10/02 12:12:52;;;;;;;9.40;3.88;;;15.80;99.90;;;;;;5049777;28;20048;-75
2021/10/02 12:15:31;;;;;;;8.00;3.80;;;15.80;99.90;;;;;;5047953;28;20076;-74
2021/10/02 12:17:57;;;;;;;8.20;3.55;;;15.90;99.90;;;;;;5046294;28;20047;-74
2021/10/02 12:20:39;;;;;;;8.13;3.78;;;15.80;99.90;;;;;;5023682;28;20044;-74
2021/10/02 12:23:06;;;;;;;6.72;3.58;;;15.80;99.90;;;;;;5050982;28;20041;-74
2021/10/02 12:25:32;;;;;;;10.20;4.07;;;15.80;99.90;;;;;;5023755;28;20041;-73
2021/10/02 12:27:58;;;;;;;7.50;4.00;;;15.80;99.90;;;;;;5047560;28;20043;-74
2021/10/02 12:30:24;;;;;;;5.78;3.63;;;15.80;99.90;;;;;;5047554;28;20110;-74
2021/10/02 12:33:02;;;;;;;7.88;4.00;;;15.80;99.90;;;;;;5044849;28;20036;-74
2021/10/02 12:35:28;;;;;;;7.72;3.90;;;15.80;99.90;;;;;;5049266;28;20037;-74
2021/10/02 12:37:56;;;;;;;6.97;4.03;;;15.70;99.90;;;;;;5046195;28;20132;-73
2021/10/02 12:40:24;;;;;;;10.02;4.28;;;15.80;99.90;;;;;;5029732;28;20056;-74
2021/10/02 12:42:53;;;;;;;7.88;4.25;;;15.70;99.90;;;;;;5030922;28;20079;-74
2021/10/02 12:45:25;;;;;;;7.43;3.95;;;15.70;99.90;;;;;;5049192;28;20060;-74
2021/10/02 12:47:58;;;;;;;8.18;4.25;;;15.70;99.90;;;;;;5028978;28;20111;-74
2021/10/02 12:50:27;;;;;;;8.07;4.75;;;15.70;99.90;;;;;;5032471;28;20040;-74
2021/10/02 12:52:54;;;;;;;8.95;4.30;;;15.70;99.90;;;;;;5047312;28;20052;-74
2021/10/02 12:55:20;;;;;;;10.38;4.60;;;15.60;99.90;;;;;;5046032;28;20090;-74
2021/10/02 12:57:47;;;;;;;10.32;4.82;;;15.60;99.90;;;;;;5028960;28;20072;-73
2021/10/02 13:00:15;;;;;;;8.80;4.60;;;15.60;99.90;;;;;;5030773;28;20044;-75
2021/10/02 13:02:56;;;;;;;11.88;5.07;;;15.50;99.90;;;;;;5047837;28;20668;-73
2021/10/02 13:05:25;;;;;;;8.15;4.95;;;15.50;99.90;;;;;;5048525;28;20071;-73
2021/10/02 13:07:54;;;;;;;9.15;5.40;;;15.50;99.90;;;;;;5031626;28;20033;-74
2021/10/02 13:10:35;;;;;;;9.25;5.35;;;15.50;99.90;;;;;;5031696;28;20044;-74
2021/10/02 13:13:13;;;;;;;8.75;5.30;;;15.50;99.90;;;;;;5032561;28;20052;-74
2021/10/02 13:15:52;;;;;;;9.77;5.18;;;15.50;99.90;;;;;;5049666;28;20039;-74
2021/10/02 13:18:18;;;;;;;9.57;5.15;;;15.50;99.90;;;;;;5028391;28;20044;-74
2021/10/02 13:20:46;;;;;;;8.68;5.10;;;15.50;99.90;;;;;;5049154;28;20521;-74
2021/10/02 13:23:21;;;;;;;8.48;5.03;;;15.60;99.90;;;;;;5049720;28;20546;-74
2021/10/02 13:25:53;;;;;;;10.93;5.40;;;15.50;99.90;;;;;;5031996;28;20052;-74
2021/10/02 13:28:28;;;;;;;7.40;4.57;;;15.50;99.90;;;;;;5048670;28;20127;-74
2021/10/02 13:30:58;;;;;;;9.90;5.68;;;15.60;99.90;;;;;;5033120;28;20291;-73
2021/10/02 13:33:25;;;;;;;9.70;4.40;;;15.60;99.90;;;;;;5049710;28;20040;-74
2021/10/02 13:35:58;;;;;;;10.18;4.35;;;15.70;99.90;;;;;;5048602;28;20047;-74